sensor_id;sensor_type;location;lat;lon;timestamp;pressure;altitude;pressure_sealevel;temperature;humidity
65758;BME280;52495;52.208;5.158;2024-01-06T00:01:01;100300.78;;;5.26;100.00
65758;BME280;52495;52.208;5.158;2024-01-06T00:03:27;100300.84;;;5.11;100.00
65758;BME280;52495;52.208;5.158;2024-01-06T00:05:54;100297.44;;;5.12;100.00
65758;BME280;52495;52.208;5.158;2024-01-06T00:08:21;100299.13;;;5.14;100.00
65758;BME280;52495;52.208;5.158;2024-01-06T00:10:47;100310.19;;;5.20;100.00
65758;BME280;52495;52.208;5.158;2024-01-06T00:13:14;100308.53;;;5.11;100.00
65758;BME280;52495;52.208;5.158;2024-01-06T00:15:41;100306.81;;;5.08;100.00
65758;BME280;52495;52.208;5.158;2024-01-06T00:18:09;100308.56;;;4.94;100.00
65758;BME280;52495;52.208;5.158;2024-01-06T00:20:36;100310.28;;;4.87;100.00
65758;BME280;52495;52.208;5.158;2024-01-06T00:23:03;100310.22;;;5.06;100.00
65758;BME280;52495;52.208;5.158;2024-01-06T00:25:29;100318.75;;;5.05;100.00
65758;BME280;52495;52.208;5.158;2024-01-06T00:27:56;100311.09;;;5.03;100.00
65758;BME280;52495;52.208;5.158;2024-01-06T00:30:23;100316.19;;;5.06;100.00
65758;BME280;52495;52.208;5.158;2024-01-06T00:32:50;100313.63;;;5.06;100.00
65758;BME280;52495;52.208;5.158;2024-01-06T00:35:18;100318.75;;;5.09;100.00
65758;BME280;52495;52.208;5.158;2024-01-06T00:37:45;100322.13;;;5.18;100.00
65758;BME280;52495;52.208;5.158;2024-01-06T00:40:12;100320.44;;;5.10;100.00
65758;BME280;52495;52.208;5.158;2024-01-06T00:42:39;100334.09;;;5.15;100.00
65758;BME280;52495;52.208;5.158;2024-01-06T00:45:07;100326.41;;;5.09;100.00
65758;BME280;52495;52.208;5.158;2024-01-06T00:47:33;100334.94;;;5.11;100.00
65758;BME280;52495;52.208;5.158;2024-01-06T00:50:00;100334.91;;;5.16;100.00
65758;BME280;52495;52.208;5.158;2024-01-06T00:52:28;100333.25;;;5.07;100.00
65758;BME280;52495;52.208;5.158;2024-01-06T00:54:55;100331.53;;;5.06;100.00
65758;BME280;52495;52.208;5.158;2024-01-06T00:57:22;100339.25;;;5.03;100.00
65758;BME280;52495;52.208;5.158;2024-01-06T00:59:49;100348.63;;;5.06;100.00
65758;BME280;52495;52.208;5.158;2024-01-06T01:02:16;100340.09;;;5.04;100.00
65758;BME280;52495;52.208;5.158;2024-01-06T01:04:43;100344.34;;;5.08;100.00
65758;BME280;52495;52.208;5.158;2024-01-06T01:07:10;100350.31;;;5.04;100.00
65758;BME280;52495;52.208;5.158;2024-01-06T01:09:38;100354.59;;;5.00;100.00
65758;BME280;52495;52.208;5.158;2024-01-06T01:12:05;100358.00;;;5.02;100.00
65758;BME280;52495;52.208;5.158;2024-01-06T01:14:32;100363.09;;;5.07;100.00
65758;BME280;52495;52.208;5.158;2024-01-06T01:16:58;100364.81;;;4.98;100.00
65758;BME280;52495;52.208;5.158;2024-01-06T01:19:25;100374.19;;;5.03;100.00
65758;BME280;52495;52.208;5.158;2024-01-06T01:21:52;100386.16;;;4.99;100.00
65758;BME280;52495;52.208;5.158;2024-01-06T01:24:21;100380.19;;;5.00;100.00
65758;BME280;52495;52.208;5.158;2024-01-06T01:26:49;100389.56;;;4.90;100.00
65758;BME280;52495;52.208;5.158;2024-01-06T01:29:16;100396.38;;;4.90;100.00
65758;BME280;52495;52.208;5.158;2024-01-06T01:31:42;100393.84;;;4.85;100.00
65758;BME280;52495;52.208;5.158;2024-01-06T01:36:36;100400.66;;;4.84;100.00
65758;BME280;52495;52.208;5.158;2024-01-06T01:39:03;100403.22;;;4.75;100.00
65758;BME280;52495;52.208;5.158;2024-01-06T01:41:29;100408.31;;;4.80;100.00
65758;BME280;52495;52.208;5.158;2024-01-06T01:43:57;100407.50;;;4.75;100.00
65758;BME280;52495;52.208;5.158;2024-01-06T01:46:25;100417.72;;;4.56;100.00
65758;BME280;52495;52.208;5.158;2024-01-06T01:48:52;100433.03;;;4.70;100.00
65758;BME280;52495;52.208;5.158;2024-01-06T01:51:20;100430.47;;;4.70;100.00
65758;BME280;52495;52.208;5.158;2024-01-06T01:53:47;100424.50;;;4.71;100.00
65758;BME280;52495;52.208;5.158;2024-01-06T01:56:14;100439.03;;;4.67;100.00
65758;BME280;52495;52.208;5.158;2024-01-06T01:58:42;100439.88;;;4.65;100.00
65758;BME280;52495;52.208;5.158;2024-01-06T02:01:10;100445.84;;;4.79;100.00
65758;BME280;52495;52.208;5.158;2024-01-06T02:03:37;100442.44;;;4.74;100.00
65758;BME280;52495;52.208;5.158;2024-01-06T02:06:04;100449.25;;;4.70;100.00
65758;BME280;52495;52.208;5.158;2024-01-06T02:08:31;100447.53;;;4.74;100.00
65758;BME280;52495;52.208;5.158;2024-01-06T02:10:58;100457.78;;;4.68;100.00
65758;BME280;52495;52.208;5.158;2024-01-06T02:13:32;100453.53;;;4.67;100.00
65758;BME280;52495;52.208;5.158;2024-01-06T02:16:00;100453.50;;;4.64;100.00
65758;BME280;52495;52.208;5.158;2024-01-06T02:18:28;100454.34;;;4.64;100.00
65758;BME280;52495;52.208;5.158;2024-01-06T02:20:56;100455.22;;;4.69;100.00
65758;BME280;52495;52.208;5.158;2024-01-06T02:23:25;100464.59;;;4.74;100.00
65758;BME280;52495;52.208;5.158;2024-01-06T02:25:52;100464.59;;;4.69;100.00
65758;BME280;52495;52.208;5.158;2024-01-06T02:28:19;100474.84;;;4.77;100.00
65758;BME280;52495;52.208;5.158;2024-01-06T02:30:46;100471.44;;;4.75;100.00
65758;BME280;52495;52.208;5.158;2024-01-06T02:33:13;100473.97;;;4.73;100.00
65758;BME280;52495;52.208;5.158;2024-01-06T02:35:40;100475.66;;;4.74;100.00
65758;BME280;52495;52.208;5.158;2024-01-06T02:38:06;100477.34;;;4.61;100.00
65758;BME280;52495;52.208;5.158;2024-01-06T02:40:35;100487.63;;;4.70;100.00
65758;BME280;52495;52.208;5.158;2024-01-06T02:43:02;100485.91;;;4.68;100.00
65758;BME280;52495;52.208;5.158;2024-01-06T02:45:28;100496.13;;;4.62;100.00
65758;BME280;52495;52.208;5.158;2024-01-06T02:47:55;100476.50;;;4.50;100.00
65758;BME280;52495;52.208;5.158;2024-01-06T02:50:22;100501.25;;;4.62;100.00
65758;BME280;52495;52.208;5.158;2024-01-06T02:52:48;100497.81;;;4.56;100.00
65758;BME280;52495;52.208;5.158;2024-01-06T02:55:15;100506.34;;;4.62;100.00
65758;BME280;52495;52.208;5.158;2024-01-06T02:57:43;100502.06;;;4.53;100.00
65758;BME280;52495;52.208;5.158;2024-01-06T03:00:11;100511.44;;;4.54;100.00
65758;BME280;52495;52.208;5.158;2024-01-06T03:02:38;100511.44;;;4.46;100.00
65758;BME280;52495;52.208;5.158;2024-01-06T03:05:08;100517.44;;;4.56;100.00
65758;BME280;52495;52.208;5.158;2024-01-06T03:07:34;100518.22;;;4.46;100.00
65758;BME280;52495;52.208;5.158;2024-01-06T03:10:01;100521.66;;;4.55;100.00
65758;BME280;52495;52.208;5.158;2024-01-06T03:12:28;100526.78;;;4.51;100.00
65758;BME280;52495;52.208;5.158;2024-01-06T03:14:56;100520.81;;;4.43;100.00
65758;BME280;52495;52.208;5.158;2024-01-06T03:17:23;100535.28;;;4.44;100.00
65758;BME280;52495;52.208;5.158;2024-01-06T03:19:49;100531.88;;;4.46;100.00
65758;BME280;52495;52.208;5.158;2024-01-06T03:22:16;100539.53;;;4.40;100.00
65758;BME280;52495;52.208;5.158;2024-01-06T03:24:43;100543.81;;;4.52;100.00
65758;BME280;52495;52.208;5.158;2024-01-06T03:27:10;100542.13;;;4.51;100.00
65758;BME280;52495;52.208;5.158;2024-01-06T03:29:38;100545.53;;;4.50;100.00
65758;BME280;52495;52.208;5.158;2024-01-06T03:32:06;100541.28;;;4.50;100.00
65758;BME280;52495;52.208;5.158;2024-01-06T03:34:33;100550.63;;;4.48;100.00
65758;BME280;52495;52.208;5.158;2024-01-06T03:36:59;100552.31;;;4.42;100.00
65758;BME280;52495;52.208;5.158;2024-01-06T03:39:26;100555.72;;;4.47;100.00
65758;BME280;52495;52.208;5.158;2024-01-06T03:41:53;100556.56;;;4.41;100.00
65758;BME280;52495;52.208;5.158;2024-01-06T03:44:19;100560.81;;;4.39;100.00
65758;BME280;52495;52.208;5.158;2024-01-06T03:46:46;100566.78;;;4.36;100.00
65758;BME280;52495;52.208;5.158;2024-01-06T03:49:14;100568.53;;;4.44;100.00
65758;BME280;52495;52.208;5.158;2024-01-06T03:51:43;100574.50;;;4.50;100.00
65758;BME280;52495;52.208;5.158;2024-01-06T03:54:10;100571.06;;;4.45;100.00
65758;BME280;52495;52.208;5.158;2024-01-06T03:56:37;100577.88;;;4.38;100.00
65758;BME280;52495;52.208;5.158;2024-01-06T03:59:04;100578.75;;;4.44;100.00
65758;BME280;52495;52.208;5.158;2024-01-06T04:01:30;100581.28;;;4.40;100.00
65758;BME280;52495;52.208;5.158;2024-01-06T04:04:00;100587.28;;;4.49;100.00
65758;BME280;52495;52.208;5.158;2024-01-06T04:06:28;100598.34;;;4.46;100.00
65758;BME280;52495;52.208;5.158;2024-01-06T04:08:55;100594.09;;;4.48;100.00
65758;BME280;52495;52.208;5.158;2024-01-06T04:11:21;100598.34;;;4.42;100.00
65758;BME280;52495;52.208;5.158;2024-01-06T04:13:48;100599.22;;;4.51;100.00
65758;BME280;52495;52.208;5.158;2024-01-06T04:16:15;100600.88;;;4.45;100.00
65758;BME280;52495;52.208;5.158;2024-01-06T04:18:42;100605.16;;;4.47;100.00
65758;BME280;52495;52.208;5.158;2024-01-06T04:21:08;100603.44;;;4.38;100.00
65758;BME280;52495;52.208;5.158;2024-01-06T04:23:37;100606.88;;;4.44;100.00
65758;BME280;52495;52.208;5.158;2024-01-06T04:26:04;100608.56;;;4.42;100.00
65758;BME280;52495;52.208;5.158;2024-01-06T04:28:32;100611.97;;;4.44;100.00
65758;BME280;52495;52.208;5.158;2024-01-06T04:30:59;100615.34;;;4.41;100.00
65758;BME280;52495;52.208;5.158;2024-01-06T04:33:25;100617.00;;;4.28;100.00
65758;BME280;52495;52.208;5.158;2024-01-06T04:35:52;100615.34;;;4.35;100.00
65758;BME280;52495;52.208;5.158;2024-01-06T04:38:19;100614.47;;;4.34;100.00
65758;BME280;52495;52.208;5.158;2024-01-06T04:40:47;100624.69;;;4.30;100.00
65758;BME280;52495;52.208;5.158;2024-01-06T04:43:14;100623.84;;;4.37;100.00
65758;BME280;52495;52.208;5.158;2024-01-06T04:45:40;100628.13;;;4.35;100.00
65758;BME280;52495;52.208;5.158;2024-01-06T04:48:07;100621.25;;;4.29;100.00
65758;BME280;52495;52.208;5.158;2024-01-06T04:50:34;100627.25;;;4.30;100.00
65758;BME280;52495;52.208;5.158;2024-01-06T04:53:00;100628.03;;;4.21;100.00
65758;BME280;52495;52.208;5.158;2024-01-06T04:55:27;100621.22;;;4.18;100.00
65758;BME280;52495;52.208;5.158;2024-01-06T04:57:55;100626.34;;;4.21;100.00
65758;BME280;52495;52.208;5.158;2024-01-06T05:00:22;100629.75;;;4.22;100.00
65758;BME280;52495;52.208;5.158;2024-01-06T05:02:49;100627.19;;;4.20;100.00
65758;BME280;52495;52.208;5.158;2024-01-06T05:05:16;100632.28;;;4.14;100.00
65758;BME280;52495;52.208;5.158;2024-01-06T05:07:43;100638.25;;;4.22;100.00
65758;BME280;52495;52.208;5.158;2024-01-06T05:10:10;100645.06;;;4.19;100.00
65758;BME280;52495;52.208;5.158;2024-01-06T05:12:37;100642.47;;;4.16;100.00
65758;BME280;52495;52.208;5.158;2024-01-06T05:15:06;100638.19;;;4.12;100.00
65758;BME280;52495;52.208;5.158;2024-01-06T05:17:33;100641.59;;;4.10;100.00
65758;BME280;52495;52.208;5.158;2024-01-06T05:19:59;100647.53;;;4.03;100.00
65758;BME280;52495;52.208;5.158;2024-01-06T05:22:26;100645.03;;;4.09;100.00
65758;BME280;52495;52.208;5.158;2024-01-06T05:24:53;100646.66;;;4.03;100.00
65758;BME280;52495;52.208;5.158;2024-01-06T05:27:21;100654.28;;;3.95;100.00
65758;BME280;52495;52.208;5.158;2024-01-06T05:29:47;100656.06;;;4.07;100.00
65758;BME280;52495;52.208;5.158;2024-01-06T05:32:17;100657.78;;;4.09;100.00
65758;BME280;52495;52.208;5.158;2024-01-06T05:34:43;100652.63;;;4.03;100.00
65758;BME280;52495;52.208;5.158;2024-01-06T05:37:11;100666.31;;;4.08;100.00
65758;BME280;52495;52.208;5.158;2024-01-06T05:39:37;100659.47;;;4.07;100.00
65758;BME280;52495;52.208;5.158;2024-01-06T05:42:05;100675.59;;;3.99;100.00
65758;BME280;52495;52.208;5.158;2024-01-06T05:44:35;100679.09;;;4.08;100.00
65758;BME280;52495;52.208;5.158;2024-01-06T05:47:02;100685.88;;;4.08;100.00
65758;BME280;52495;52.208;5.158;2024-01-06T05:49:30;100683.38;;;4.16;100.00
65758;BME280;52495;52.208;5.158;2024-01-06T05:51:57;100692.72;;;4.14;100.00
65758;BME280;52495;52.208;5.158;2024-01-06T05:54:23;100693.59;;;4.14;100.00
65758;BME280;52495;52.208;5.158;2024-01-06T05:56:50;100697.88;;;4.18;100.00
65758;BME280;52495;52.208;5.158;2024-01-06T05:59:17;100702.97;;;4.17;100.00
65758;BME280;52495;52.208;5.158;2024-01-06T06:01:43;100704.72;;;4.21;100.00
65758;BME280;52495;52.208;5.158;2024-01-06T06:04:11;100706.38;;;4.20;100.00
65758;BME280;52495;52.208;5.158;2024-01-06T06:06:39;100708.09;;;4.20;100.00
65758;BME280;52495;52.208;5.158;2024-01-06T06:09:06;100710.59;;;4.14;100.00
65758;BME280;52495;52.208;5.158;2024-01-06T06:11:35;100713.97;;;4.08;100.00
65758;BME280;52495;52.208;5.158;2024-01-06T06:14:02;100713.13;;;4.09;100.00
65758;BME280;52495;52.208;5.158;2024-01-06T06:16:30;100725.06;;;4.12;100.00
65758;BME280;52495;52.208;5.158;2024-01-06T06:18:56;100724.22;;;4.09;100.00
65758;BME280;52495;52.208;5.158;2024-01-06T06:21:23;100731.00;;;4.06;100.00
65758;BME280;52495;52.208;5.158;2024-01-06T06:23:51;100734.38;;;4.03;100.00
65758;BME280;52495;52.208;5.158;2024-01-06T06:26:18;100740.38;;;4.07;100.00
65758;BME280;52495;52.208;5.158;2024-01-06T06:28:45;100744.63;;;4.08;100.00
65758;BME280;52495;52.208;5.158;2024-01-06T06:31:11;100759.09;;;4.06;100.00
65758;BME280;52495;52.208;5.158;2024-01-06T06:33:38;100758.28;;;4.10;100.00
65758;BME280;52495;52.208;5.158;2024-01-06T06:36:06;100762.50;;;4.05;100.00
65758;BME280;52495;52.208;5.158;2024-01-06T06:38:32;100765.06;;;4.06;100.00
65758;BME280;52495;52.208;5.158;2024-01-06T06:41:00;100768.41;;;3.99;100.00
65758;BME280;52495;52.208;5.158;2024-01-06T06:43:27;100770.88;;;3.90;100.00
65758;BME280;52495;52.208;5.158;2024-01-06T06:45:54;100773.44;;;3.93;100.00
65758;BME280;52495;52.208;5.158;2024-01-06T06:48:21;100781.09;;;3.91;100.00
65758;BME280;52495;52.208;5.158;2024-01-06T06:50:48;100780.28;;;3.92;100.00
65758;BME280;52495;52.208;5.158;2024-01-06T06:53:15;100788.75;;;3.87;100.00
65758;BME280;52495;52.208;5.158;2024-01-06T06:55:42;100792.13;;;3.84;100.00
65758;BME280;52495;52.208;5.158;2024-01-06T06:58:10;100784.44;;;3.83;100.00
65758;BME280;52495;52.208;5.158;2024-01-06T07:00:37;100795.56;;;3.88;100.00
65758;BME280;52495;52.208;5.158;2024-01-06T07:03:04;100793.78;;;3.79;100.00
65758;BME280;52495;52.208;5.158;2024-01-06T07:05:31;100804.88;;;3.83;100.00
65758;BME280;52495;52.208;5.158;2024-01-06T07:08:00;100810.00;;;3.86;100.00
65758;BME280;52495;52.208;5.158;2024-01-06T07:10:27;100810.81;;;3.80;100.00
65758;BME280;52495;52.208;5.158;2024-01-06T07:13:01;100816.72;;;3.74;100.00
65758;BME280;52495;52.208;5.158;2024-01-06T07:15:30;100817.59;;;3.79;100.00
65758;BME280;52495;52.208;5.158;2024-01-06T07:17:57;100821.88;;;3.80;100.00
65758;BME280;52495;52.208;5.158;2024-01-06T07:20:23;100820.16;;;3.79;100.00
65758;BME280;52495;52.208;5.158;2024-01-06T07:22:50;100827.81;;;3.79;100.00
65758;BME280;52495;52.208;5.158;2024-01-06T07:25:17;100827.88;;;3.84;100.00
65758;BME280;52495;52.208;5.158;2024-01-06T07:27:44;100843.97;;;3.78;100.00
65758;BME280;52495;52.208;5.158;2024-01-06T07:30:11;100845.81;;;3.89;100.00
65758;BME280;52495;52.208;5.158;2024-01-06T07:32:39;100851.72;;;3.85;100.00
65758;BME280;52495;52.208;5.158;2024-01-06T07:35:08;100850.75;;;3.76;100.00
65758;BME280;52495;52.208;5.158;2024-01-06T07:37:35;100857.63;;;3.80;100.00
65758;BME280;52495;52.208;5.158;2024-01-06T07:40:01;100859.44;;;3.91;100.00
65758;BME280;52495;52.208;5.158;2024-01-06T07:42:28;100866.25;;;3.90;100.00
65758;BME280;52495;52.208;5.158;2024-01-06T07:44:55;100868.75;;;3.87;100.00
65758;BME280;52495;52.208;5.158;2024-01-06T07:47:22;100861.09;;;3.86;100.00
65758;BME280;52495;52.208;5.158;2024-01-06T07:49:51;100871.25;;;3.83;100.00
65758;BME280;52495;52.208;5.158;2024-01-06T07:52:18;100877.22;;;3.82;100.00
65758;BME280;52495;52.208;5.158;2024-01-06T07:54:45;100875.53;;;3.85;100.00
65758;BME280;52495;52.208;5.158;2024-01-06T07:57:12;100879.84;;;3.88;100.00
65758;BME280;52495;52.208;5.158;2024-01-06T07:59:38;100879.81;;;3.85;100.00
65758;BME280;52495;52.208;5.158;2024-01-06T08:02:05;100882.38;;;3.86;100.00
65758;BME280;52495;52.208;5.158;2024-01-06T08:04:32;100888.31;;;3.85;100.00
65758;BME280;52495;52.208;5.158;2024-01-06T08:07:00;100895.16;;;3.89;100.00
65758;BME280;52495;52.208;5.158;2024-01-06T08:09:27;100903.63;;;3.85;100.00
65758;BME280;52495;52.208;5.158;2024-01-06T08:11:54;100902.84;;;3.88;100.00
65758;BME280;52495;52.208;5.158;2024-01-06T08:14:20;100901.16;;;3.91;100.00
65758;BME280;52495;52.208;5.158;2024-01-06T08:16:47;100909.69;;;3.92;100.00
65758;BME280;52495;52.208;5.158;2024-01-06T08:19:14;100913.94;;;3.93;100.00
65758;BME280;52495;52.208;5.158;2024-01-06T08:21:41;100917.44;;;4.00;100.00
65758;BME280;52495;52.208;5.158;2024-01-06T08:24:09;100917.38;;;3.95;100.00
65758;BME280;52495;52.208;5.158;2024-01-06T08:26:36;100922.44;;;3.90;100.00
65758;BME280;52495;52.208;5.158;2024-01-06T08:29:02;100929.25;;;3.90;100.00
65758;BME280;52495;52.208;5.158;2024-01-06T08:31:29;100928.47;;;3.95;100.00
65758;BME280;52495;52.208;5.158;2024-01-06T08:33:56;100932.78;;;4.01;100.00
65758;BME280;52495;52.208;5.158;2024-01-06T08:36:23;100938.81;;;4.06;100.00
65758;BME280;52495;52.208;5.158;2024-01-06T08:38:49;100938.81;;;4.06;100.00
65758;BME280;52495;52.208;5.158;2024-01-06T08:41:18;100932.81;;;4.04;100.00
65758;BME280;52495;52.208;5.158;2024-01-06T08:43:44;100940.47;;;4.06;100.00
65758;BME280;52495;52.208;5.158;2024-01-06T08:46:11;100939.63;;;4.05;100.00
65758;BME280;52495;52.208;5.158;2024-01-06T08:48:38;100933.66;;;4.05;100.00
65758;BME280;52495;52.208;5.158;2024-01-06T08:51:04;100944.78;;;4.10;100.00
65758;BME280;52495;52.208;5.158;2024-01-06T08:53:31;100943.88;;;4.03;100.00
65758;BME280;52495;52.208;5.158;2024-01-06T08:55:58;100951.63;;;4.11;100.00
65758;BME280;52495;52.208;5.158;2024-01-06T08:58:26;100958.41;;;4.07;100.00
65758;BME280;52495;52.208;5.158;2024-01-06T09:00:53;100963.56;;;4.14;100.00
65758;BME280;52495;52.208;5.158;2024-01-06T09:03:20;100969.47;;;4.06;100.00
65758;BME280;52495;52.208;5.158;2024-01-06T09:05:51;100977.16;;;4.09;100.00
65758;BME280;52495;52.208;5.158;2024-01-06T09:08:18;100977.94;;;4.04;100.00
65758;BME280;52495;52.208;5.158;2024-01-06T09:10:45;100983.88;;;4.01;100.00
65758;BME280;52495;52.208;5.158;2024-01-06T09:13:12;100978.91;;;4.14;100.00
65758;BME280;52495;52.208;5.158;2024-01-06T09:15:40;100981.41;;;4.07;100.00
65758;BME280;52495;52.208;5.158;2024-01-06T09:18:07;100991.63;;;4.10;100.00
65758;BME280;52495;52.208;5.158;2024-01-06T09:20:34;100995.09;;;4.16;100.00
65758;BME280;52495;52.208;5.158;2024-01-06T09:23:01;101005.28;;;4.09;100.00
65758;BME280;52495;52.208;5.158;2024-01-06T09:25:28;101006.97;;;4.09;100.00
65758;BME280;52495;52.208;5.158;2024-01-06T09:27:55;101020.63;;;4.11;100.00
65758;BME280;52495;52.208;5.158;2024-01-06T09:30:22;101014.72;;;4.17;100.00
65758;BME280;52495;52.208;5.158;2024-01-06T09:32:50;101017.31;;;4.18;100.00
65758;BME280;52495;52.208;5.158;2024-01-06T09:35:17;101019.03;;;4.22;100.00
65758;BME280;52495;52.208;5.158;2024-01-06T09:37:43;101022.38;;;4.15;100.00
65758;BME280;52495;52.208;5.158;2024-01-06T09:40:12;101026.59;;;4.15;100.00
65758;BME280;52495;52.208;5.158;2024-01-06T09:42:39;101024.06;;;4.15;100.00
65758;BME280;52495;52.208;5.158;2024-01-06T09:45:07;101030.81;;;4.09;100.00
65758;BME280;52495;52.208;5.158;2024-01-06T09:47:35;101029.97;;;4.10;100.00
65758;BME280;52495;52.208;5.158;2024-01-06T09:50:06;101040.97;;;4.05;100.00
65758;BME280;52495;52.208;5.158;2024-01-06T09:52:39;101047.84;;;4.10;100.00
65758;BME280;52495;52.208;5.158;2024-01-06T09:55:10;101053.00;;;4.14;100.00
65758;BME280;52495;52.208;5.158;2024-01-06T09:57:37;101062.34;;;4.10;100.00
65758;BME280;52495;52.208;5.158;2024-01-06T10:00:05;101060.63;;;4.10;100.00
65758;BME280;52495;52.208;5.158;2024-01-06T10:02:37;101065.69;;;4.06;100.00
65758;BME280;52495;52.208;5.158;2024-01-06T10:05:05;101059.78;;;4.10;100.00
65758;BME280;52495;52.208;5.158;2024-01-06T10:07:32;101060.56;;;4.06;100.00
65758;BME280;52495;52.208;5.158;2024-01-06T10:09:59;101064.88;;;4.08;100.00
65758;BME280;52495;52.208;5.158;2024-01-06T10:12:27;101073.50;;;4.17;100.00
65758;BME280;52495;52.208;5.158;2024-01-06T10:14:54;101072.75;;;4.25;100.00
65758;BME280;52495;52.208;5.158;2024-01-06T10:17:22;101075.25;;;4.22;100.00
65758;BME280;52495;52.208;5.158;2024-01-06T10:19:49;101086.41;;;4.28;100.00
65758;BME280;52495;52.208;5.158;2024-01-06T10:22:19;101088.03;;;4.22;100.00
65758;BME280;52495;52.208;5.158;2024-01-06T10:24:46;101082.91;;;4.21;100.00
65758;BME280;52495;52.208;5.158;2024-01-06T10:27:12;101088.09;;;4.25;100.00
65758;BME280;52495;52.208;5.158;2024-01-06T10:29:39;101088.09;;;4.27;100.00
65758;BME280;52495;52.208;5.158;2024-01-06T10:32:06;101084.63;;;4.22;100.00
65758;BME280;52495;52.208;5.158;2024-01-06T10:34:33;101097.41;;;4.22;100.00
65758;BME280;52495;52.208;5.158;2024-01-06T10:37:02;101094.91;;;4.25;100.00
65758;BME280;52495;52.208;5.158;2024-01-06T10:39:33;101097.50;;;4.30;100.00
65758;BME280;52495;52.208;5.158;2024-01-06T10:42:00;101105.19;;;4.31;100.00
65758;BME280;52495;52.208;5.158;2024-01-06T10:44:30;101100.03;;;4.25;100.00
65758;BME280;52495;52.208;5.158;2024-01-06T10:46:59;101110.25;;;4.25;100.00
65758;BME280;52495;52.208;5.158;2024-01-06T10:49:28;101105.16;;;4.28;100.00
65758;BME280;52495;52.208;5.158;2024-01-06T10:51:57;101112.72;;;4.20;100.00
65758;BME280;52495;52.208;5.158;2024-01-06T10:54:24;101112.75;;;4.22;100.00
65758;BME280;52495;52.208;5.158;2024-01-06T10:56:56;101121.31;;;4.25;100.00
65758;BME280;52495;52.208;5.158;2024-01-06T10:59:26;101119.53;;;4.20;100.00
65758;BME280;52495;52.208;5.158;2024-01-06T11:01:54;101114.47;;;4.23;100.00
65758;BME280;52495;52.208;5.158;2024-01-06T11:04:22;101123.09;;;4.31;100.00
65758;BME280;52495;52.208;5.158;2024-01-06T11:06:50;101123.03;;;4.27;100.00
65758;BME280;52495;52.208;5.158;2024-01-06T11:09:20;101107.69;;;4.27;100.00
65758;BME280;52495;52.208;5.158;2024-01-06T11:11:48;101125.50;;;4.20;100.00
65758;BME280;52495;52.208;5.158;2024-01-06T11:14:22;101128.97;;;4.24;100.00
65758;BME280;52495;52.208;5.158;2024-01-06T11:16:49;101126.28;;;4.15;100.00
65758;BME280;52495;52.208;5.158;2024-01-06T11:19:42;101132.25;;;4.15;100.00
65758;BME280;52495;52.208;5.158;2024-01-06T11:22:26;101129.59;;;4.07;100.00
65758;BME280;52495;52.208;5.158;2024-01-06T11:24:55;101131.44;;;4.18;100.00
65758;BME280;52495;52.208;5.158;2024-01-06T11:27:23;101130.47;;;4.11;100.00
65758;BME280;52495;52.208;5.158;2024-01-06T11:29:54;101131.41;;;4.16;100.00
65758;BME280;52495;52.208;5.158;2024-01-06T11:32:26;101132.91;;;4.02;100.00
65758;BME280;52495;52.208;5.158;2024-01-06T11:34:54;101142.31;;;4.04;100.00
65758;BME280;52495;52.208;5.158;2024-01-06T11:37:26;101145.81;;;4.09;100.00
65758;BME280;52495;52.208;5.158;2024-01-06T11:40:01;101140.81;;;4.20;100.00
65758;BME280;52495;52.208;5.158;2024-01-06T11:42:32;101141.66;;;4.19;100.00
65758;BME280;52495;52.208;5.158;2024-01-06T11:45:03;101139.09;;;4.18;100.00
65758;BME280;52495;52.208;5.158;2024-01-06T11:47:31;101144.25;;;4.21;100.00
65758;BME280;52495;52.208;5.158;2024-01-06T11:49:59;101150.25;;;4.23;100.00
65758;BME280;52495;52.208;5.158;2024-01-06T11:52:29;101138.34;;;4.25;100.00
65758;BME280;52495;52.208;5.158;2024-01-06T11:54:56;101145.19;;;4.29;100.00
65758;BME280;52495;52.208;5.158;2024-01-06T11:57:25;101146.97;;;4.33;100.00
65758;BME280;52495;52.208;5.158;2024-01-06T11:59:51;101142.75;;;4.35;100.00
65758;BME280;52495;52.208;5.158;2024-01-06T12:02:20;101141.00;;;4.33;100.00
65758;BME280;52495;52.208;5.158;2024-01-06T12:04:48;101138.41;;;4.31;100.00
65758;BME280;52495;52.208;5.158;2024-01-06T12:07:16;101139.31;;;4.33;100.00
65758;BME280;52495;52.208;5.158;2024-01-06T12:09:43;101134.16;;;4.30;100.00
65758;BME280;52495;52.208;5.158;2024-01-06T12:12:10;101146.03;;;4.25;100.00
65758;BME280;52495;52.208;5.158;2024-01-06T12:14:40;101135.97;;;4.37;100.00
65758;BME280;52495;52.208;5.158;2024-01-06T12:17:07;101145.28;;;4.35;100.00
65758;BME280;52495;52.208;5.158;2024-01-06T12:19:35;101138.56;;;4.42;100.00
65758;BME280;52495;52.208;5.158;2024-01-06T12:22:03;101145.34;;;4.40;100.00
65758;BME280;52495;52.208;5.158;2024-01-06T12:24:30;101142.84;;;4.42;100.00
65758;BME280;52495;52.208;5.158;2024-01-06T12:26:58;101165.84;;;4.43;100.00
65758;BME280;52495;52.208;5.158;2024-01-06T12:29:26;101152.13;;;4.36;100.00
65758;BME280;52495;52.208;5.158;2024-01-06T12:31:53;101149.53;;;4.33;100.00
65758;BME280;52495;52.208;5.158;2024-01-06T12:34:20;101144.25;;;4.21;100.00
65758;BME280;52495;52.208;5.158;2024-01-06T12:36:52;101158.03;;;4.32;100.00
65758;BME280;52495;52.208;5.158;2024-01-06T12:39:19;101163.09;;;4.28;100.00
65758;BME280;52495;52.208;5.158;2024-01-06T12:41:46;101164.75;;;4.24;100.00
65758;BME280;52495;52.208;5.158;2024-01-06T12:44:12;101165.53;;;4.18;100.00
65758;BME280;52495;52.208;5.158;2024-01-06T12:46:39;101162.00;;;4.12;100.00
65758;BME280;52495;52.208;5.158;2024-01-06T12:49:06;101163.72;;;4.13;100.00
65758;BME280;52495;52.208;5.158;2024-01-06T12:51:33;101165.47;;;4.17;100.00
65758;BME280;52495;52.208;5.158;2024-01-06T12:54:01;101173.06;;;4.10;100.00